Flight Track Log - Related Links

Times and Time Zones

All times are in EDT time to prevent confusion due to time zone crossing. See the N50KC flight status page for this flight to view local times or setup timezone preferences in your user account.

Time Position Orientation Groundspeed Altitude Reporting Facility
EDT Latitude Longitude Course Direction KTS MPH feet Rate Location/Type
Wed 05:47:15 PM 40.9000 -74.0333 311° West 207 238 2,000  Level New York TRACON
Wed 05:48:15 PM 40.9333 -74.0833 311° West 215 247 2,000 1,450 Level New York TRACON
Wed 05:49:15 PM 40.9667 -74.1667 298° West 247 284 4,900 2,000 Climbing New York TRACON
Wed 05:50:15 PM 41.0333 -74.1667 360° North 273 314 6,000 550 Climbing New York TRACON
Wed 05:51:15 PM 41.1000 -74.1500 11° North 265 305 6,000  Level New York TRACON
Wed 05:52:15 PM 41.1667 -74.0833 37° Northeast 269 310 6,000  Level New York TRACON
Wed 05:53:15 PM 41.1833 -74.0000 75° East 275 316 6,000 -100 Level New York TRACON
Wed 05:54:15 PM 41.2167 -73.9000 66° East 279 321 5,800 -350 Descending New York TRACON
Wed 05:55:15 PM 41.2333 -73.8000 77° East 273 314 5,300 -400 Descending New York TRACON
Wed 05:56:15 PM 41.2500 -73.7000 77° East 269 310 5,000 -150 Descending New York TRACON
Wed 05:57:15 PM 41.2667 -73.6000 77° East 270 311 5,000  Level New York TRACON
Wed 05:58:15 PM 41.3000 -73.5000 66° East 273 314 5,000 -150 Level New York TRACON
Wed 05:59:15 PM 41.3167 -73.4167 75° East 270 311 4,700 -500 Descending New York TRACON
Wed 06:00:15 PM 41.3333 -73.3167 77° East 259 298 4,000 -600 Descending New York TRACON
Wed 06:01:15 PM 41.3500 -73.2333 75° East 223 257 3,500 -500 Descending New York TRACON
Wed 06:02:15 PM 41.3667 -73.1667 72° East 183 211 3,000 -500 Descending New York TRACON
Wed 06:03:15 PM 41.3833 -73.1167 66° East 168 193 2,500 -700 Descending New York TRACON
Wed 06:04:15 PM 41.4333 -73.1167 360° North 146 168 1,600 -750 Descending New York TRACON
Wed 06:05:15 PM 41.4500 -73.1333 323° Northwest 110 127 1,000 -300 Descending New York TRACON
Wed 06:06:15 PM 41.4833 -73.1333 360° North 113 130 1,000  Level New York TRACON
Wed 06:08:00 PM 41.4786 -73.1352 180° South  Level Estimated
Wed 06:15:00 PM 41.4786 -73.1352 180° South  Level Estimated
Wed 06:16:00 PM 41.4786 -73.1352 180° South  Level Estimated

Login

Don't have an account? Register now (free) for customized features, flight alerts, and more!